Time;durP1;ratioP1;P1;durP2;ratioP2;P2;SDS_P1;SDS_P2;PMS_P1;PMS_P2;Temp;Humidity;BMP_temperature;BMP_pressure;BME280_temperature;BME280_humidity;BME280_pressure;Samples;Min_cycle;Max_cycle;Signal;HPM_P1;HPM_P2
2023/10/29 00:01:58;;;;;;;0.70;0.70;;;;;;;11.64;100.00;96958.81;4104289;28;20215;-44
2023/10/29 00:04:04;;;;;;;0.75;0.75;;;;;;;11.83;100.00;96948.69;4120760;28;20267;-44
2023/10/29 00:06:06;;;;;;;0.63;0.63;;;;;;;11.79;100.00;96952.34;4105410;28;20235;-45
2023/10/29 00:08:11;;;;;;;0.50;0.50;;;;;;;11.87;100.00;96952.50;4118305;28;20198;-45
2023/10/29 00:10:13;;;;;;;0.73;0.70;;;;;;;11.74;100.00;96950.47;4119968;28;20210;-46
2023/10/29 00:12:15;;;;;;;0.50;0.50;;;;;;;11.73;100.00;96968.03;4133801;28;20217;-44
2023/10/29 00:14:16;;;;;;;0.85;0.80;;;;;;;11.67;100.00;96963.72;4120083;28;20218;-44
2023/10/29 00:16:18;;;;;;;0.77;0.77;;;;;;;11.64;100.00;96958.81;4098304;28;20409;-44
2023/10/29 00:18:20;;;;;;;0.90;0.60;;;;;;;11.75;100.00;96965.81;4101901;28;20729;-45
2023/10/29 00:20:22;;;;;;;0.82;0.70;;;;;;;11.69;100.00;96966.97;4120786;28;20237;-45
2023/10/29 00:22:24;;;;;;;0.82;0.63;;;;;;;11.67;100.00;96974.69;4118141;28;20205;-44
2023/10/29 00:24:25;;;;;;;0.50;0.50;;;;;;;11.67;100.00;96971.13;4134928;28;20768;-44
2023/10/29 00:26:30;;;;;;;0.30;0.30;;;;;;;11.60;100.00;96963.28;4104681;28;20211;-44
2023/10/29 00:28:32;;;;;;;1.10;0.82;;;;;;;11.63;100.00;96968.16;4119488;28;20211;-45
2023/10/29 00:30:33;;;;;;;0.73;0.73;;;;;;;11.67;100.00;96973.88;4101522;28;20207;-45
2023/10/29 00:32:35;;;;;;;0.65;0.65;;;;;;;11.62;100.00;96966.53;4101177;28;20574;-45
2023/10/29 00:34:37;;;;;;;0.70;0.70;;;;;;;11.54;100.00;96969.91;4101808;28;20263;-45
2023/10/29 00:36:38;;;;;;;0.90;0.75;;;;;;;11.60;100.00;96974.25;4105731;28;20211;-45
2023/10/29 00:38:40;;;;;;;0.60;0.60;;;;;;;11.58;100.00;96983.84;4104007;28;20215;-44
2023/10/29 00:40:42;;;;;;;0.55;0.55;;;;;;;11.65;100.00;96982.38;4104320;28;20215;-44
2023/10/29 00:42:44;;;;;;;0.82;0.82;;;;;;;11.69;100.00;96994.38;4118449;28;20588;-44
2023/10/29 00:44:46;;;;;;;0.73;0.73;;;;;;;11.60;100.00;96987.94;4103695;28;20310;-44
2023/10/29 00:46:49;;;;;;;0.40;0.40;;;;;;;11.57;100.00;96991.22;4103917;28;20243;-45
2023/10/29 00:48:51;;;;;;;0.50;0.50;;;;;;;11.52;100.00;96994.00;4086972;28;20275;-45
2023/10/29 00:50:53;;;;;;;0.50;0.50;;;;;;;11.53;100.00;96979.25;4134566;28;20269;-45
2023/10/29 00:52:55;;;;;;;0.70;0.70;;;;;;;11.49;100.00;96967.22;4133004;28;20324;-45
2023/10/29 00:54:57;;;;;;;0.60;0.60;;;;;;;11.52;100.00;96950.19;4119703;28;20252;-45
2023/10/29 00:56:59;;;;;;;2.17;1.17;;;;;;;11.56;100.00;96948.50;4133156;28;20698;-44
2023/10/29 00:59:01;;;;;;;0.77;0.77;;;;;;;11.47;100.00;96953.00;4131623;28;20218;-44
2023/10/29 01:01:03;;;;;;;0.82;0.82;;;;;;;11.44;100.00;96959.06;4118896;28;20218;-45
2023/10/29 01:03:05;;;;;;;2.15;0.95;;;;;;;11.44;100.00;96958.25;4087733;28;20582;-45
2023/10/29 01:05:07;;;;;;;0.40;0.40;;;;;;;11.40;100.00;96952.56;4102073;28;20261;-45
2023/10/29 01:07:09;;;;;;;0.50;0.50;;;;;;;11.40;100.00;96958.03;4119037;28;20263;-44
2023/10/29 01:09:11;;;;;;;0.82;0.82;;;;;;;11.37;100.00;96950.38;4102981;28;20270;-44
2023/10/29 01:11:13;;;;;;;0.80;0.80;;;;;;;11.43;100.00;96938.25;4102495;28;20588;-45
2023/10/29 01:13:15;;;;;;;0.50;0.50;;;;;;;11.30;100.00;96928.03;4102454;28;20219;-46
2023/10/29 01:15:17;;;;;;;0.60;0.60;;;;;;;11.23;100.00;96924.84;4101155;28;20234;-45
2023/10/29 01:17:20;;;;;;;1.33;1.23;;;;;;;11.30;100.00;96919.00;4100239;28;20203;-44
2023/10/29 01:19:22;;;;;;;0.70;0.70;;;;;;;11.23;100.00;96913.09;4116872;28;20743;-45
2023/10/29 01:21:26;;;;;;;0.70;0.70;;;;;;;11.32;100.00;96906.63;4117701;28;20767;-45
2023/10/29 01:23:28;;;;;;;1.88;0.70;;;;;;;11.25;100.00;96905.38;4117884;28;20667;-45
2023/10/29 01:25:30;;;;;;;0.50;0.50;;;;;;;11.20;100.00;96898.06;4134006;28;20388;-44
2023/10/29 01:27:33;;;;;;;0.70;0.70;;;;;;;11.23;100.00;96886.50;4121982;28;20206;-44
2023/10/29 01:29:34;;;;;;;1.88;0.68;;;;;;;11.20;100.00;96875.31;4120312;28;20207;-44
2023/10/29 01:31:36;;;;;;;0.75;0.75;;;;;;;11.26;100.00;96874.97;4107296;28;20217;-44
2023/10/29 01:33:38;;;;;;;0.50;0.50;;;;;;;11.26;100.00;96874.97;4104756;28;20234;-45
2023/10/29 01:35:40;;;;;;;1.60;1.45;;;;;;;11.41;100.00;96877.50;4120469;28;20289;-45
2023/10/29 01:37:42;;;;;;;0.65;0.65;;;;;;;11.54;100.00;96871.28;4122786;28;20253;-44
2023/10/29 01:39:44;;;;;;;0.47;0.47;;;;;;;11.63;100.00;96842.13;4120948;28;20209;-45
2023/10/29 01:41:45;;;;;;;0.65;0.65;;;;;;;11.76;100.00;96833.16;4138008;28;20208;-45
2023/10/29 01:43:47;;;;;;;0.60;0.60;;;;;;;11.93;100.00;96830.69;4103029;28;20670;-44
2023/10/29 01:45:49;;;;;;;0.50;0.50;;;;;;;11.96;100.00;96834.78;4104669;28;20227;-44
2023/10/29 01:47:50;;;;;;;0.63;0.50;;;;;;;12.00;100.00;96842.09;4120229;28;20672;-44
2023/10/29 01:49:52;;;;;;;0.40;0.40;;;;;;;11.97;100.00;96853.63;4120077;28;20278;-44
2023/10/29 01:51:54;;;;;;;0.70;0.70;;;;;;;12.01;100.00;96854.69;4121906;28;20214;-44
2023/10/29 01:53:56;;;;;;;1.35;0.65;;;;;;;11.99;100.00;96883.50;4121941;28;20659;-45
2023/10/29 01:55:58;;;;;;;1.08;0.98;;;;;;;12.02;100.00;96897.44;4118754;28;20317;-45
2023/10/29 01:58:00;;;;;;;0.82;0.82;;;;;;;11.97;100.00;96889.28;4101280;28;20214;-44
2023/10/29 02:00:08;;;;;;;0.82;0.80;;;;;;;11.97;100.00;96893.97;4102228;28;20661;-44
2023/10/29 02:02:10;;;;;;;1.15;1.15;;;;;;;11.87;100.00;96886.72;4117428;28;20695;-45
2023/10/29 02:04:12;;;;;;;1.45;0.70;;;;;;;11.91;100.00;96893.19;4110334;28;20203;-45
2023/10/29 02:06:16;;;;;;;0.50;0.50;;;;;;;11.87;100.00;96885.88;4134970;28;20668;-45
2023/10/29 02:08:18;;;;;;;0.90;0.60;;;;;;;11.99;100.00;96910.91;4102950;28;20267;-45
2023/10/29 02:10:19;;;;;;;0.60;0.60;;;;;;;12.06;100.00;96906.69;4133713;28;20697;-44
2023/10/29 02:12:25;;;;;;;0.60;0.60;;;;;;;12.03;100.00;96904.53;4104045;28;20211;-45
2023/10/29 02:14:28;;;;;;;0.50;0.50;;;;;;;12.10;100.00;96902.22;4101532;28;20304;-44
2023/10/29 02:16:30;;;;;;;0.50;0.40;;;;;;;12.08;100.00;96890.75;4104374;28;20218;-44
2023/10/29 02:18:32;;;;;;;0.68;0.60;;;;;;;12.11;100.00;96898.38;4123065;28;20206;-44
2023/10/29 02:20:34;;;;;;;2.17;0.52;;;;;;;12.33;100.00;96901.28;4104001;28;20221;-44
2023/10/29 02:22:36;;;;;;;5.10;0.80;;;;;;;12.42;100.00;96898.66;4134201;28;20842;-44
2023/10/29 02:24:37;;;;;;;0.70;0.70;;;;;;;12.33;100.00;96893.06;4135435;28;20225;-44
2023/10/29 02:26:39;;;;;;;2.63;0.70;;;;;;;12.24;100.00;96894.84;4122853;28;20581;-44
2023/10/29 02:28:42;;;;;;;0.63;0.50;;;;;;;12.33;100.00;96890.31;4104556;28;20250;-45
2023/10/29 02:30:44;;;;;;;0.68;0.68;;;;;;;12.36;100.00;96878.75;4120507;28;20214;-45
2023/10/29 02:32:45;;;;;;;0.45;0.45;;;;;;;12.39;100.00;96888.31;4103793;28;20203;-45
2023/10/29 02:34:47;;;;;;;0.60;0.60;;;;;;;12.31;100.00;96892.53;4103155;28;20231;-45
2023/10/29 02:36:49;;;;;;;0.45;0.45;;;;;;;12.35;100.00;96879.88;4088872;28;20693;-44
2023/10/29 02:38:51;;;;;;;1.48;0.82;;;;;;;12.32;100.00;96875.00;4102858;28;20213;-44
2023/10/29 02:40:56;;;;;;;1.42;0.47;;;;;;;12.29;100.00;96877.50;4119776;28;20226;-45
2023/10/29 02:42:57;;;;;;;0.60;0.60;;;;;;;12.26;100.00;96878.94;4122566;28;20363;-45
2023/10/29 02:44:59;;;;;;;0.43;0.43;;;;;;;12.28;100.00;96873.94;4117568;28;20227;-44
2023/10/29 02:47:01;;;;;;;0.60;0.60;;;;;;;12.50;100.00;96876.84;4108587;28;20210;-45
2023/10/29 02:49:03;;;;;;;0.85;0.45;;;;;;;12.67;100.00;96874.34;4134643;28;20217;-45
2023/10/29 02:51:10;;;;;;;0.98;0.63;;;;;;;13.02;100.00;96879.16;4088192;28;20212;-44
2023/10/29 02:53:12;;;;;;;1.10;0.60;;;;;;;12.86;100.00;96886.03;4117868;28;20273;-44
2023/10/29 02:55:14;;;;;;;0.57;0.50;;;;;;;12.91;100.00;96888.66;4134974;28;20654;-45
2023/10/29 02:57:16;;;;;;;10.75;0.77;;;;;;;12.86;100.00;96882.47;4119898;28;20210;-45
2023/10/29 02:59:18;;;;;;;0.70;0.70;;;;;;;12.87;100.00;96879.44;4118751;28;20305;-44
2023/10/29 03:01:20;;;;;;;0.55;0.55;;;;;;;12.86;100.00;96886.03;4133319;28;20212;-44
2023/10/29 03:03:22;;;;;;;0.60;0.60;;;;;;;13.02;100.00;96881.91;4116374;28;20251;-45
2023/10/29 03:05:24;;;;;;;0.60;0.60;;;;;;;13.02;100.00;96887.38;4136171;28;20251;-45
2023/10/29 03:07:26;;;;;;;0.68;0.68;;;;;;;13.02;100.00;96898.38;4120109;28;20317;-45
2023/10/29 03:09:28;;;;;;;5.07;0.93;;;;;;;13.10;100.00;96894.91;4088737;28;20211;-44
2023/10/29 03:11:29;;;;;;;0.60;0.60;;;;;;;13.20;100.00;96899.38;4135395;28;20209;-44
2023/10/29 03:13:31;;;;;;;0.40;0.40;;;;;;;13.19;100.00;96906.00;4104888;28;20221;-44
2023/10/29 03:15:33;;;;;;;2.55;0.70;;;;;;;13.25;100.00;96897.34;4120890;28;20243;-44
2023/10/29 03:17:35;;;;;;;0.60;0.60;;;;;;;13.25;100.00;96894.59;4135823;28;20567;-44
2023/10/29 03:19:36;;;;;;;0.55;0.52;;;;;;;13.17;100.00;96911.78;4118074;28;20687;-44
2023/10/29 03:21:38;;;;;;;0.40;0.40;;;;;;;13.11;100.00;96901.22;4120292;28;20206;-44
2023/10/29 03:23:40;;;;;;;0.68;0.68;;;;;;;13.05;100.00;96891.47;4103052;28;20208;-44
2023/10/29 03:25:44;;;;;;;0.40;0.40;;;;;;;12.97;100.00;96901.22;4119632;28;20908;-44
2023/10/29 03:27:46;;;;;;;3.90;0.75;;;;;;;12.89;100.00;96904.63;4103927;28;20236;-43
2023/10/29 03:29:48;;;;;;;0.75;0.68;;;;;;;12.77;100.00;96906.25;4121857;28;20221;-44
2023/10/29 03:31:50;;;;;;;0.82;0.82;;;;;;;12.74;100.00;96913.16;4106605;28;20950;-44
2023/10/29 03:33:52;;;;;;;0.80;0.65;;;;;;;12.65;100.00;96898.50;4119808;28;20219;-45
2023/10/29 03:35:53;;;;;;;0.55;0.55;;;;;;;12.57;100.00;96896.47;4135793;28;20226;-44
2023/10/29 03:37:55;;;;;;;8.73;2.28;;;;;;;12.63;100.00;96892.50;4103871;28;20290;-44
2023/10/29 03:39:58;;;;;;;0.65;0.65;;;;;;;12.58;100.00;96891.81;4121465;28;20217;-43
2023/10/29 03:42:00;;;;;;;1.08;0.68;;;;;;;12.57;100.00;96896.47;4120825;28;20209;-45
2023/10/29 03:44:01;;;;;;;0.68;0.57;;;;;;;12.62;100.00;96890.06;4103865;28;20211;-44
2023/10/29 03:46:10;;;;;;;0.80;0.80;;;;;;;12.53;100.00;96900.94;4117823;28;20280;-44
2023/10/29 03:48:14;;;;;;;0.65;0.65;;;;;;;12.52;100.00;96891.09;4105251;28;20247;-44
2023/10/29 03:50:19;;;;;;;1.75;1.25;;;;;;;12.59;100.00;96896.16;4104034;28;20298;-44
2023/10/29 03:52:22;;;;;;;0.50;0.50;;;;;;;12.50;100.00;96893.31;4087241;28;20721;-44
2023/10/29 03:54:24;;;;;;;0.63;0.63;;;;;;;12.54;100.00;96902.56;4101929;28;20701;-44
2023/10/29 03:56:25;;;;;;;0.65;0.60;;;;;;;12.50;100.00;96909.75;4102057;28;20210;-44
2023/10/29 03:58:27;;;;;;;0.77;0.77;;;;;;;12.46;100.00;96908.75;4117596;28;20261;-44
2023/10/29 04:00:29;;;;;;;0.77;0.60;;;;;;;12.41;100.00;96908.84;4119484;28;20762;-45
2023/10/29 04:02:31;;;;;;;0.60;0.60;;;;;;;12.46;100.00;96911.50;4104790;28;20207;-44
2023/10/29 04:04:33;;;;;;;0.80;0.80;;;;;;;12.40;100.00;96912.69;4118078;28;20226;-44
2023/10/29 04:06:35;;;;;;;0.30;0.30;;;;;;;12.45;100.00;96917.28;4118797;28;20205;-44
2023/10/29 04:08:39;;;;;;;0.50;0.50;;;;;;;12.37;100.00;96918.75;4120103;28;20210;-44
2023/10/29 04:10:41;;;;;;;0.75;0.75;;;;;;;12.35;100.00;96921.00;4104671;28;20218;-44
2023/10/29 04:12:43;;;;;;;0.40;0.40;;;;;;;12.41;100.00;96930.78;4133479;28;20350;-44
2023/10/29 04:14:45;;;;;;;0.40;0.40;;;;;;;12.34;100.00;96930.34;4115473;28;20274;-43
2023/10/29 04:16:48;;;;;;;0.45;0.45;;;;;;;12.34;100.00;96935.84;4118760;28;20630;-44
2023/10/29 04:18:50;;;;;;;0.60;0.50;;;;;;;12.34;100.00;96935.84;4119614;28;20640;-45
2023/10/29 04:20:51;;;;;;;0.50;0.50;;;;;;;12.36;100.00;96930.06;4134574;28;20221;-44
2023/10/29 04:22:54;;;;;;;0.40;0.40;;;;;;;12.30;100.00;96929.31;4101001;28;20673;-44
2023/10/29 04:24:55;;;;;;;0.50;0.50;;;;;;;12.29;100.00;96926.84;4104030;28;20226;-44
2023/10/29 04:26:57;;;;;;;1.95;0.63;;;;;;;12.29;100.00;96933.16;4135569;28;20209;-44
2023/10/29 04:28:59;;;;;;;0.60;0.60;;;;;;;12.26;100.00;96933.78;4102795;28;20214;-44
2023/10/29 04:31:02;;;;;;;1.23;1.13;;;;;;;12.24;100.00;96924.22;4101309;28;20214;-44
2023/10/29 04:33:04;;;;;;;0.60;0.60;;;;;;;12.27;100.00;96924.44;4118667;28;20222;-44
2023/10/29 04:35:06;;;;;;;1.17;0.40;;;;;;;12.20;100.00;96929.50;4103770;28;20239;-44
2023/10/29 04:37:09;;;;;;;0.95;0.95;;;;;;;12.24;100.00;96925.03;4117602;28;20214;-44
2023/10/29 04:39:11;;;;;;;0.50;0.50;;;;;;;12.25;100.00;96932.13;4101453;28;22253;-44
2023/10/29 04:41:13;;;;;;;0.60;0.60;;;;;;;12.25;100.00;96932.13;4104754;28;20278;-44
2023/10/29 04:43:15;;;;;;;0.60;0.60;;;;;;;12.27;100.00;96929.91;4120122;28;20939;-45
2023/10/29 04:45:16;;;;;;;0.65;0.60;;;;;;;12.20;100.00;96929.50;4118504;28;20276;-44
2023/10/29 04:47:18;;;;;;;0.60;0.60;;;;;;;12.14;100.00;96925.19;4101237;28;20215;-44
2023/10/29 04:49:20;;;;;;;0.47;0.47;;;;;;;12.21;100.00;96920.16;4133526;28;20560;-44
2023/10/29 04:51:21;;;;;;;1.08;0.85;;;;;;;12.18;100.00;96919.94;4135032;28;20213;-44
2023/10/29 04:53:23;;;;;;;0.50;0.50;;;;;;;12.26;100.00;96922.81;4117392;28;20218;-44
2023/10/29 04:55:26;;;;;;;0.65;0.65;;;;;;;12.20;100.00;96924.00;4130657;28;20237;-44
2023/10/29 04:57:29;;;;;;;0.57;0.57;;;;;;;12.25;100.00;96932.13;4104551;28;20198;-44
2023/10/29 04:59:30;;;;;;;0.80;0.80;;;;;;;12.33;100.00;96933.38;4118305;28;20621;-44
2023/10/29 05:01:32;;;;;;;1.13;1.13;;;;;;;12.29;100.00;96930.44;4118548;28;20198;-45
2023/10/29 05:03:34;;;;;;;0.93;0.73;;;;;;;12.27;100.00;96935.41;4121132;28;20211;-44
2023/10/29 05:05:36;;;;;;;0.60;0.60;;;;;;;12.27;100.00;96929.91;4120272;28;20257;-45
2023/10/29 05:07:38;;;;;;;1.25;1.15;;;;;;;12.26;100.00;96943.94;4123626;28;20198;-45
2023/10/29 05:09:39;;;;;;;0.60;0.60;;;;;;;12.26;100.00;96950.25;4090007;28;20595;-44
2023/10/29 05:11:41;;;;;;;1.17;0.95;;;;;;;12.25;100.00;96956.81;4122985;28;20668;-44
2023/10/29 05:13:43;;;;;;;0.85;0.85;;;;;;;12.23;100.00;96972.75;4121740;28;20213;-44
2023/10/29 05:15:45;;;;;;;0.50;0.50;;;;;;;12.25;100.00;96948.59;4106055;28;20301;-44
2023/10/29 05:17:46;;;;;;;1.70;1.13;;;;;;;12.24;100.00;96951.66;4123128;28;20630;-44
2023/10/29 05:19:48;;;;;;;1.33;1.33;;;;;;;12.20;100.00;96945.94;4137379;28;20997;-44
2023/10/29 05:21:50;;;;;;;0.70;0.70;;;;;;;12.21;100.00;96928.38;4120833;28;20215;-44
2023/10/29 05:23:52;;;;;;;0.43;0.43;;;;;;;12.20;100.00;96929.50;4121721;28;20210;-45
2023/10/29 05:25:54;;;;;;;0.40;0.40;;;;;;;12.18;100.00;96939.91;4105534;28;20231;-45
2023/10/29 05:27:56;;;;;;;0.80;0.75;;;;;;;12.22;100.00;96948.38;4136818;28;20214;-45
2023/10/29 05:29:59;;;;;;;1.40;1.23;;;;;;;12.24;100.00;96952.44;4103835;28;20249;-44
2023/10/29 05:32:01;;;;;;;1.70;1.48;;;;;;;12.21;100.00;96953.06;4105457;28;20216;-44
2023/10/29 05:34:03;;;;;;;1.73;0.85;;;;;;;12.23;100.00;96948.06;4106322;28;20218;-44
2023/10/29 05:36:05;;;;;;;0.75;0.75;;;;;;;12.20;100.00;96964.31;4105865;28;20231;-44
2023/10/29 05:38:06;;;;;;;0.68;0.68;;;;;;;12.20;100.00;96973.38;4119062;28;20612;-44
2023/10/29 05:40:09;;;;;;;0.60;0.60;;;;;;;12.18;100.00;96983.78;4119326;28;20293;-44
2023/10/29 05:42:13;;;;;;;2.30;0.75;;;;;;;12.19;100.00;96981.88;4118764;28;20277;-44
2023/10/29 05:44:15;;;;;;;0.88;0.88;;;;;;;12.24;100.00;96979.88;4102133;28;20265;-44
2023/10/29 05:46:16;;;;;;;0.47;0.47;;;;;;;12.24;100.00;96985.34;4105087;28;20285;-44
2023/10/29 05:48:18;;;;;;;0.80;0.80;;;;;;;12.18;100.00;96986.53;4104491;28;20206;-45
2023/10/29 05:50:20;;;;;;;0.50;0.50;;;;;;;12.16;100.00;96990.72;4102006;28;20652;-45
2023/10/29 05:52:22;;;;;;;0.65;0.65;;;;;;;12.13;100.00;96999.53;4119662;28;20257;-46
2023/10/29 05:54:24;;;;;;;1.05;0.70;;;;;;;12.15;100.00;96992.63;4120180;28;20676;-44
2023/10/29 05:56:25;;;;;;;0.50;0.50;;;;;;;12.18;100.00;96997.50;4089708;28;20291;-44
2023/10/29 05:58:27;;;;;;;0.57;0.52;;;;;;;12.18;100.00;97002.19;4103659;28;20206;-44
2023/10/29 06:00:29;;;;;;;0.70;0.70;;;;;;;12.18;100.00;97003.00;4104741;28;20214;-44
2023/10/29 06:02:31;;;;;;;1.17;0.75;;;;;;;12.17;100.00;97006.84;4102205;28;20234;-45
2023/10/29 06:04:32;;;;;;;0.43;0.43;;;;;;;12.17;100.00;97006.84;4119165;28;20230;-45
2023/10/29 06:06:34;;;;;;;0.70;0.70;;;;;;;12.18;100.00;97008.47;4116906;28;20301;-45
2023/10/29 06:08:36;;;;;;;0.57;0.57;;;;;;;12.16;100.00;96983.28;4100492;28;20581;-44
2023/10/29 06:10:38;;;;;;;0.73;0.73;;;;;;;12.16;100.00;96994.25;4087883;28;20733;-44
2023/10/29 06:12:44;;;;;;;0.75;0.75;;;;;;;12.17;100.00;96987.66;4105828;28;20212;-44
2023/10/29 06:14:46;;;;;;;0.63;0.60;;;;;;;12.22;100.00;96968.38;4104091;28;20238;-44
2023/10/29 06:16:55;;;;;;;1.48;1.42;;;;;;;12.25;100.00;96977.94;4104628;28;20206;-44
2023/10/29 06:19:04;;;;;;;1.15;1.15;;;;;;;12.28;100.00;96975.44;4104731;28;20293;-46
2023/10/29 06:21:06;;;;;;;0.90;0.90;;;;;;;12.33;100.00;96971.78;4120163;28;20256;-44
2023/10/29 06:23:08;;;;;;;0.80;0.80;;;;;;;12.37;100.00;96978.31;4087522;28;20690;-43
2023/10/29 06:25:10;;;;;;;0.80;0.80;;;;;;;12.37;100.00;96954.41;4122077;28;20270;-44
2023/10/29 06:27:12;;;;;;;0.60;0.60;;;;;;;12.39;100.00;96927.53;4105005;28;20215;-44
2023/10/29 06:29:13;;;;;;;0.50;0.50;;;;;;;12.37;100.00;96924.25;4136468;28;20221;-44
2023/10/29 06:31:15;;;;;;;0.63;0.63;;;;;;;12.38;100.00;96931.38;4121058;28;20216;-44
2023/10/29 06:33:17;;;;;;;0.63;0.63;;;;;;;12.42;100.00;96931.56;4138217;28;20283;-44
2023/10/29 06:35:19;;;;;;;0.63;0.63;;;;;;;12.43;100.00;96927.75;4136905;28;20242;-44
2023/10/29 06:37:21;;;;;;;1.52;0.70;;;;;;;12.37;100.00;96937.16;4121474;28;20320;-48
2023/10/29 06:39:23;;;;;;;1.00;1.00;;;;;;;12.40;100.00;96945.63;4120863;28;20632;-43
2023/10/29 06:41:25;;;;;;;1.00;1.00;;;;;;;12.40;100.00;96967.56;4103379;28;20299;-44
2023/10/29 06:43:26;;;;;;;0.73;0.73;;;;;;;12.41;100.00;96971.91;4119710;28;20214;-44
2023/10/29 06:45:28;;;;;;;1.55;1.48;;;;;;;12.36;100.00;96985.72;4104403;28;20225;-44
2023/10/29 06:47:30;;;;;;;0.60;0.60;;;;;;;12.39;100.00;96976.06;4107199;28;20202;-44
2023/10/29 06:49:32;;;;;;;0.70;0.70;;;;;;;12.39;100.00;96976.91;4106619;28;20211;-44
2023/10/29 06:51:34;;;;;;;0.93;0.70;;;;;;;12.42;100.00;96981.78;4106775;28;20206;-44
2023/10/29 06:53:35;;;;;;;0.45;0.45;;;;;;;12.43;100.00;96982.59;4136778;28;20640;-44
2023/10/29 06:55:41;;;;;;;0.73;0.73;;;;;;;12.43;100.00;96980.66;4102636;28;20227;-44
2023/10/29 06:57:42;;;;;;;2.08;1.88;;;;;;;12.46;100.00;96977.34;4117520;28;20675;-43
2023/10/29 06:59:44;;;;;;;0.75;0.75;;;;;;;12.46;100.00;96988.31;4104817;28;20204;-44
2023/10/29 07:01:47;;;;;;;0.60;0.60;;;;;;;12.46;100.00;96982.81;4103482;28;20751;-45
2023/10/29 07:03:49;;;;;;;0.50;0.50;;;;;;;12.53;100.00;96986.00;4103376;28;20214;-44
2023/10/29 07:05:51;;;;;;;0.60;0.60;;;;;;;12.53;100.00;96994.22;4121896;28;20266;-44
2023/10/29 07:07:58;;;;;;;0.60;0.60;;;;;;;12.55;100.00;97002.13;4121890;28;20346;-45
2023/10/29 07:10:02;;;;;;;0.70;0.70;;;;;;;12.48;100.00;96991.56;4120560;28;20581;-44
2023/10/29 07:12:04;;;;;;;0.82;0.82;;;;;;;12.51;100.00;97004.66;4137124;28;20205;-45
2023/10/29 07:14:06;;;;;;;1.25;1.25;;;;;;;12.56;100.00;97003.78;4103415;28;20752;-44
2023/10/29 07:16:09;;;;;;;0.98;0.98;;;;;;;12.58;100.00;96996.88;4122610;28;20611;-44
2023/10/29 07:18:11;;;;;;;0.60;0.60;;;;;;;12.60;100.00;96983.69;4120834;28;20217;-45
2023/10/29 07:20:13;;;;;;;0.90;0.90;;;;;;;12.61;100.00;96963.34;4105964;28;20651;-44
2023/10/29 07:22:20;;;;;;;0.60;0.60;;;;;;;12.62;100.00;96936.72;4135110;28;20565;-44
2023/10/29 07:24:22;;;;;;;0.85;0.77;;;;;;;12.61;100.00;96924.94;4119309;28;20214;-44
2023/10/29 07:26:24;;;;;;;1.58;1.48;;;;;;;12.61;100.00;96913.97;4121408;28;20205;-45
2023/10/29 07:28:28;;;;;;;0.90;0.82;;;;;;;12.59;100.00;96909.88;4121577;28;20711;-45
2023/10/29 07:30:30;;;;;;;0.45;0.45;;;;;;;12.62;100.00;96926.56;4103534;28;20260;-44
2023/10/29 07:32:32;;;;;;;0.50;0.50;;;;;;;12.71;100.00;96919.25;4102407;28;20245;-45
2023/10/29 07:34:34;;;;;;;0.60;0.55;;;;;;;12.72;100.00;96915.41;4107456;28;20313;-44
2023/10/29 07:36:35;;;;;;;1.00;0.60;;;;;;;12.77;100.00;96920.78;4103910;28;20230;-44
2023/10/29 07:38:37;;;;;;;0.60;0.60;;;;;;;12.84;100.00;96918.47;4101884;28;20208;-44
2023/10/29 07:40:39;;;;;;;0.40;0.40;;;;;;;12.84;100.00;96912.16;4119659;28;20210;-44
2023/10/29 07:42:41;;;;;;;0.68;0.68;;;;;;;12.84;100.00;96915.72;4104913;28;20819;-44
2023/10/29 07:44:42;;;;;;;0.70;0.70;;;;;;;12.89;100.00;96912.06;4117930;28;20230;-44
2023/10/29 07:46:44;;;;;;;0.60;0.60;;;;;;;12.88;100.00;96904.94;4105474;28;20247;-44
2023/10/29 07:48:49;;;;;;;0.70;0.70;;;;;;;12.85;100.00;96897.31;4132819;28;20266;-44
2023/10/29 07:50:51;;;;;;;1.08;0.77;;;;;;;12.88;100.00;96902.19;4117396;28;20611;-44
2023/10/29 07:52:53;;;;;;;0.90;0.90;;;;;;;12.89;100.00;96923.06;4117651;28;20234;-44
2023/10/29 07:54:54;;;;;;;0.70;0.70;;;;;;;12.85;100.00;96928.31;4118427;28;20277;-44
2023/10/29 07:56:56;;;;;;;0.68;0.68;;;;;;;12.88;100.00;96914.00;4117956;28;20285;-44
2023/10/29 07:58:58;;;;;;;0.70;0.70;;;;;;;12.88;100.00;96892.03;4134566;28;20214;-44
2023/10/29 08:01:00;;;;;;;13.60;1.02;;;;;;;12.89;100.00;96904.63;4131691;28;20237;-44
2023/10/29 08:03:02;;;;;;;0.82;0.82;;;;;;;12.90;100.00;96906.25;4105214;28;20249;-43
2023/10/29 08:05:04;;;;;;;0.60;0.60;;;;;;;12.92;100.00;96930.69;4088320;28;20227;-44
2023/10/29 08:07:06;;;;;;;1.08;0.60;;;;;;;12.97;100.00;96923.19;4134469;28;20213;-44
2023/10/29 08:09:08;;;;;;;5.18;0.70;;;;;;;12.98;100.00;96930.28;4116567;28;20215;-44
2023/10/29 08:11:20;;;;;;;0.65;0.65;;;;;;;12.99;100.00;96933.88;4088934;28;20211;-44
2023/10/29 08:13:21;;;;;;;0.40;0.40;;;;;;;12.98;100.00;96930.28;4118783;28;20949;-43
2023/10/29 08:15:23;;;;;;;0.50;0.50;;;;;;;12.96;100.00;96938.03;4120686;28;20692;-44
2023/10/29 08:17:25;;;;;;;0.77;0.55;;;;;;;12.95;100.00;96925.41;4115387;28;20300;-44
2023/10/29 08:19:27;;;;;;;0.60;0.60;;;;;;;12.97;100.00;96928.66;4120258;28;20280;-44
2023/10/29 08:21:28;;;;;;;0.50;0.50;;;;;;;12.97;100.00;96931.41;4103134;28;20325;-44
2023/10/29 08:23:30;;;;;;;0.77;0.77;;;;;;;12.93;100.00;96926.81;4116870;28;20806;-44
2023/10/29 08:25:35;;;;;;;0.40;0.40;;;;;;;12.93;100.00;96933.13;4084341;28;20231;-44
2023/10/29 08:27:36;;;;;;;0.63;0.52;;;;;;;12.94;100.00;96940.25;4134234;28;20221;-44
2023/10/29 08:29:40;;;;;;;1.05;0.80;;;;;;;12.95;100.00;96941.06;4099401;28;20203;-44
2023/10/29 08:31:41;;;;;;;1.73;0.63;;;;;;;12.97;100.00;96944.34;4117725;28;20225;-44
2023/10/29 08:33:43;;;;;;;0.93;0.70;;;;;;;12.94;100.00;96933.91;4116525;28;20244;-44
2023/10/29 08:35:45;;;;;;;1.10;0.77;;;;;;;12.95;100.00;96930.91;4102347;28;20325;-44
2023/10/29 08:37:47;;;;;;;0.90;0.90;;;;;;;12.93;100.00;96944.09;4103314;28;20884;-45
2023/10/29 08:39:49;;;;;;;0.47;0.47;;;;;;;12.97;100.00;96939.66;4101741;28;20237;-44
2023/10/29 08:41:51;;;;;;;0.73;0.70;;;;;;;13.00;100.00;96950.03;4106571;28;20207;-44
2023/10/29 08:43:53;;;;;;;0.68;0.68;;;;;;;13.06;100.00;96937.03;4120783;28;20202;-44
2023/10/29 08:45:55;;;;;;;0.50;0.50;;;;;;;13.04;100.00;96942.00;4102140;28;20231;-44
2023/10/29 08:47:57;;;;;;;0.77;0.77;;;;;;;13.08;100.00;96957.56;4132598;28;20217;-44
2023/10/29 08:49:58;;;;;;;0.90;0.90;;;;;;;13.05;100.00;96963.66;4117990;28;20242;-44
2023/10/29 08:52:00;;;;;;;1.40;0.60;;;;;;;13.07;100.00;96972.44;4101959;28;20221;-43
2023/10/29 08:54:03;;;;;;;0.57;0.57;;;;;;;13.12;100.00;96980.56;4118154;28;20639;-44
2023/10/29 08:56:05;;;;;;;0.60;0.60;;;;;;;13.10;100.00;96985.53;4132584;28;20641;-44
2023/10/29 08:58:09;;;;;;;0.35;0.35;;;;;;;13.12;100.00;96990.72;4119097;28;20217;-44
2023/10/29 09:00:12;;;;;;;0.52;0.52;;;;;;;13.09;100.00;97005.88;4116801;28;20217;-44
2023/10/29 09:02:14;;;;;;;2.03;1.83;;;;;;;13.05;100.00;97006.78;4120129;28;20206;-44
2023/10/29 09:04:15;;;;;;;0.68;0.68;;;;;;;13.07;100.00;97019.09;4115353;28;20266;-45
2023/10/29 09:06:17;;;;;;;0.55;0.43;;;;;;;13.05;100.00;97040.53;4103579;28;20199;-44
2023/10/29 09:08:19;;;;;;;0.80;0.80;;;;;;;13.04;100.00;97044.41;4120285;28;20458;-44
2023/10/29 09:10:21;;;;;;;0.75;0.75;;;;;;;13.04;100.00;97049.91;4115192;28;20210;-44
2023/10/29 09:12:23;;;;;;;0.60;0.50;;;;;;;12.96;100.00;97047.84;4115853;28;20215;-44
2023/10/29 09:14:25;;;;;;;0.70;0.70;;;;;;;12.98;100.00;97044.81;4118273;28;20647;-44
2023/10/29 09:16:27;;;;;;;1.10;0.80;;;;;;;12.99;100.00;97041.78;4117649;28;20253;-44
2023/10/29 09:18:28;;;;;;;0.55;0.55;;;;;;;12.98;100.00;97029.13;4134395;28;20862;-45
2023/10/29 09:20:32;;;;;;;0.68;0.57;;;;;;;12.94;100.00;97022.59;4118595;28;20698;-45
2023/10/29 09:22:34;;;;;;;0.40;0.40;;;;;;;12.92;100.00;97035.84;4118544;28;20285;-45
2023/10/29 09:24:35;;;;;;;2.28;1.60;;;;;;;12.97;100.00;97033.00;4133149;28;20292;-44
2023/10/29 09:26:37;;;;;;;1.02;0.80;;;;;;;12.93;100.00;97025.66;4100905;28;20207;-44
2023/10/29 09:28:39;;;;;;;0.57;0.57;;;;;;;12.91;100.00;97023.19;4134114;28;20206;-45